createdAt,value
2023-03-28T00:01:09.772Z,97898.66
2023-03-28T00:03:40.074Z,97900.50
2023-03-28T00:06:13.311Z,97911.25
2023-03-28T00:08:42.210Z,97905.88
2023-03-28T00:11:12.759Z,97894.25
2023-03-28T00:13:41.593Z,97897.50
2023-03-28T00:16:12.958Z,97894.31
2023-03-28T00:18:42.835Z,97890.19
2023-03-28T00:21:23.656Z,97893.72
2023-03-28T00:23:53.616Z,97882.50
2023-03-28T00:26:24.838Z,97884.75
2023-03-28T00:28:53.815Z,97887.47
2023-03-28T00:31:22.298Z,97894.47
2023-03-28T00:33:50.921Z,97895.78
2023-03-28T00:36:23.069Z,97894.69
2023-03-28T00:38:52.469Z,97895.09
2023-03-28T00:41:21.975Z,97900.69
2023-03-28T00:43:53.268Z,97900.88
2023-03-28T00:46:23.699Z,97906.69
2023-03-28T00:48:54.248Z,97902.19
2023-03-28T00:51:27.133Z,97898.47
2023-03-28T00:53:58.195Z,97893.22
2023-03-28T00:56:29.905Z,97895.13
2023-03-28T00:58:59.139Z,97907.22
2023-03-28T01:01:28.432Z,97907.81
2023-03-28T01:04:03.137Z,97907.31
2023-03-28T01:06:34.844Z,97900.63
2023-03-28T01:09:06.878Z,97897.09
2023-03-28T01:11:38.267Z,97897.38
2023-03-28T01:14:07.951Z,97898.09
2023-03-28T01:16:41.973Z,97895.97
2023-03-28T01:19:15.237Z,97893.09
2023-03-28T01:22:07.364Z,97899.31
2023-03-28T01:25:14.703Z,97891.50
2023-03-28T01:27:45.781Z,97891.44
2023-03-28T01:30:32.150Z,97892.22
2023-03-28T01:33:21.523Z,97890.34
2023-03-28T01:36:33.997Z,97893.13
2023-03-28T01:39:09.455Z,97887.03
2023-03-28T01:41:43.305Z,97886.56
2023-03-28T01:44:16.283Z,97883.03
2023-03-28T01:46:47.296Z,97889.84
2023-03-28T01:49:21.860Z,97883.84
2023-03-28T01:51:58.657Z,97880.69
2023-03-28T01:54:32.184Z,97871.50
2023-03-28T01:57:06.003Z,97881.25
2023-03-28T01:59:37.188Z,97881.50
2023-03-28T02:02:09.423Z,97876.66
2023-03-28T02:04:38.607Z,97871.69
2023-03-28T02:07:09.062Z,97873.47
2023-03-28T02:09:40.255Z,97877.84
2023-03-28T02:12:13.478Z,97880.84
2023-03-28T02:14:43.523Z,97869.84
2023-03-28T02:17:16.829Z,97874.88
2023-03-28T02:19:48.241Z,97871.56
2023-03-28T02:22:21.243Z,97868.38
2023-03-28T02:24:53.143Z,97865.44
2023-03-28T02:27:22.819Z,97861.22
2023-03-28T02:29:54.537Z,97859.75
2023-03-28T02:32:23.934Z,97860.84
2023-03-28T02:34:54.796Z,97860.84
2023-03-28T02:37:32.720Z,97869.09
2023-03-28T02:40:17.431Z,97865.78
2023-03-28T02:43:12.601Z,97875.38
2023-03-28T02:46:04.900Z,97867.78
2023-03-28T02:48:41.963Z,97868.28
2023-03-28T02:51:17.691Z,97862.88
2023-03-28T02:53:53.837Z,97870.47
2023-03-28T02:56:29.655Z,97866.91
2023-03-28T02:58:59.911Z,97870.03
2023-03-28T03:01:29.419Z,97866.88
2023-03-28T03:03:58.588Z,97861.84
2023-03-28T03:06:27.001Z,97862.78
2023-03-28T03:08:55.515Z,97863.59
2023-03-28T03:11:28.199Z,97866.03
2023-03-28T03:13:57.492Z,97862.13
2023-03-28T03:16:25.950Z,97869.50
2023-03-28T03:18:54.432Z,97858.66
2023-03-28T03:21:23.797Z,97856.81
2023-03-28T03:23:52.395Z,97860.16
2023-03-28T03:26:20.876Z,97857.44
2023-03-28T03:28:50.721Z,97858.28
2023-03-28T03:31:19.815Z,97860.03
2023-03-28T03:33:48.684Z,97851.84
2023-03-28T03:36:17.480Z,97855.66
2023-03-28T03:38:45.977Z,97850.22
2023-03-28T03:41:14.231Z,97850.22
2023-03-28T03:43:43.540Z,97850.75
2023-03-28T03:46:14.297Z,97851.75
2023-03-28T03:48:49.499Z,97851.91
2023-03-28T03:51:18.765Z,97846.81
2023-03-28T03:53:50.661Z,97844.59
2023-03-28T03:56:18.987Z,97856.09
2023-03-28T03:58:47.536Z,97835.69
2023-03-28T04:01:17.196Z,97841.56
2023-03-28T04:03:48.224Z,97836.53
2023-03-28T04:06:16.564Z,97840.69
2023-03-28T04:08:45.040Z,97845.56
2023-03-28T04:11:13.228Z,97840.97
2023-03-28T04:13:41.774Z,97836.06
2023-03-28T04:16:11.957Z,97835.03
2023-03-28T04:18:42.125Z,97839.66
2023-03-28T04:21:10.485Z,97844.13
2023-03-28T04:23:43.700Z,97842.78
2023-03-28T04:26:20.643Z,97840.13
2023-03-28T04:28:49.168Z,97843.94
2023-03-28T04:31:17.490Z,97852.13
2023-03-28T04:33:47.554Z,97839.38
2023-03-28T04:36:16.867Z,97840.16
2023-03-28T04:38:46.778Z,97838.53
2023-03-28T04:41:16.921Z,97840.47
2023-03-28T04:43:45.708Z,97850.81
2023-03-28T04:46:14.060Z,97854.88
2023-03-28T04:48:42.613Z,97864.09
2023-03-28T04:51:12.374Z,97856.25
2023-03-28T04:53:40.992Z,97845.06
2023-03-28T04:56:14.088Z,97838.56
2023-03-28T04:58:42.808Z,97844.81
2023-03-28T05:01:11.862Z,97854.56
2023-03-28T05:03:40.493Z,97853.25
2023-03-28T05:06:10.853Z,97859.50
2023-03-28T05:08:43.875Z,97857.34
2023-03-28T05:11:12.529Z,97859.53
2023-03-28T05:13:41.112Z,97862.22
2023-03-28T05:16:09.742Z,97866.34
2023-03-28T05:18:38.252Z,97866.31
2023-03-28T05:21:07.389Z,97868.75
2023-03-28T05:23:36.092Z,97872.28
2023-03-28T05:26:06.732Z,97863.34
2023-03-28T05:28:35.961Z,97864.69
2023-03-28T05:31:06.641Z,97864.97
2023-03-28T05:33:35.848Z,97871.50
2023-03-28T05:36:04.675Z,97875.03
2023-03-28T05:38:33.877Z,97874.22
2023-03-28T05:41:03.362Z,97874.47
2023-03-28T05:43:33.261Z,97872.28
2023-03-28T05:46:01.719Z,97880.75
2023-03-28T05:48:31.897Z,97877.75
2023-03-28T05:51:00.602Z,97875.03
2023-03-28T05:53:29.315Z,97876.66
2023-03-28T05:55:57.584Z,97881.84
2023-03-28T05:58:26.084Z,97893.56
2023-03-28T06:00:56.850Z,97893.81
2023-03-28T06:03:25.980Z,97890.28
2023-03-28T06:05:54.410Z,97874.50
2023-03-28T06:08:22.952Z,97878.56
2023-03-28T06:10:51.265Z,97886.47
2023-03-28T06:13:19.753Z,97889.47
2023-03-28T06:15:47.938Z,97885.66
2023-03-28T06:18:17.920Z,97886.69
2023-03-28T06:20:46.254Z,97893.81
2023-03-28T06:23:14.793Z,97896.53
2023-03-28T06:25:43.049Z,97901.72
2023-03-28T06:28:11.690Z,97921.84
2023-03-28T06:30:41.156Z,97919.66
2023-03-28T06:33:09.867Z,97922.09
2023-03-28T06:35:39.446Z,97924.53
2023-03-28T06:38:08.069Z,97923.88
2023-03-28T06:40:38.887Z,97932.81
2023-03-28T06:43:07.398Z,97942.91
2023-03-28T06:45:35.619Z,97943.44
2023-03-28T06:48:04.304Z,97943.06
2023-03-28T06:50:32.546Z,97944.00
2023-03-28T06:53:02.685Z,97937.63
2023-03-28T06:55:30.878Z,97944.16
2023-03-28T06:57:59.475Z,97929.91
2023-03-28T07:00:27.825Z,97942.66
2023-03-28T07:02:56.618Z,97950.78
2023-03-28T07:05:25.087Z,97939.28
2023-03-28T07:07:53.628Z,97954.28
2023-03-28T07:10:23.657Z,97953.00
2023-03-28T07:12:52.218Z,97966.19
2023-03-28T07:15:20.638Z,97956.81
2023-03-28T07:17:49.096Z,97971.78
2023-03-28T07:20:17.471Z,97974.81
2023-03-28T07:22:46.134Z,97982.88
2023-03-28T07:25:14.406Z,97975.22
2023-03-28T07:27:44.362Z,97987.50
2023-03-28T07:30:13.767Z,98002.78
2023-03-28T07:32:54.325Z,98001.84
2023-03-28T07:35:28.320Z,98003.19
2023-03-28T07:37:57.655Z,98012.41
2023-03-28T07:40:26.300Z,98017.47
2023-03-28T07:42:56.263Z,98021.25
2023-03-28T07:45:24.582Z,98020.97
2023-03-28T07:47:53.253Z,98020.94
2023-03-28T07:50:25.046Z,98024.56
2023-03-28T07:52:57.681Z,98021.81
2023-03-28T07:55:26.675Z,98035.56
2023-03-28T07:57:56.637Z,98037.22
2023-03-28T08:00:25.227Z,98041.16
2023-03-28T08:02:53.851Z,98053.22
2023-03-28T08:05:24.278Z,98062.63
2023-03-28T08:07:53.969Z,98065.63
2023-03-28T08:10:22.506Z,98061.28
2023-03-28T08:12:51.165Z,98076.59
2023-03-28T08:15:21.055Z,98059.63
2023-03-28T08:17:49.830Z,98079.03
2023-03-28T08:20:19.779Z,98090.78
2023-03-28T08:22:48.582Z,98089.41
2023-03-28T08:25:16.966Z,98081.78
2023-03-28T08:27:45.612Z,98083.69
2023-03-28T08:30:14.554Z,98091.13
2023-03-28T08:32:46.271Z,98082.78
2023-03-28T08:35:16.707Z,98082.84
2023-03-28T08:37:48.038Z,98085.00
2023-03-28T08:40:19.701Z,98083.09
2023-03-28T08:43:01.670Z,98088.72
2023-03-28T08:45:38.486Z,98126.91
2023-03-28T08:48:18.983Z,98121.50
2023-03-28T08:50:49.542Z,98133.13
2023-03-28T08:53:26.630Z,98128.63
2023-03-28T08:55:55.210Z,98135.03
2023-03-28T08:58:25.181Z,98150.56
2023-03-28T09:01:12.502Z,98153.69
2023-03-28T09:03:47.811Z,98148.31
2023-03-28T09:06:37.303Z,98163.88
2023-03-28T09:09:38.565Z,98167.13
2023-03-28T09:12:39.020Z,98167.84
2023-03-28T09:15:35.605Z,98166.06
2023-03-28T09:18:38.309Z,98162.97
2023-03-28T09:21:15.217Z,98160.69
2023-03-28T09:24:09.965Z,98155.28
2023-03-28T09:26:48.855Z,98153.22
2023-03-28T09:29:28.580Z,98146.06
2023-03-28T09:32:17.663Z,98160.63
2023-03-28T09:34:57.618Z,98142.75
2023-03-28T09:37:49.274Z,98152.69
2023-03-28T09:40:42.815Z,98156.84
2023-03-28T09:43:17.123Z,98160.28
2023-03-28T09:46:03.253Z,98170.41
2023-03-28T09:48:49.109Z,98173.00
2023-03-28T09:51:19.899Z,98194.84
2023-03-28T09:53:59.535Z,98199.66
2023-03-28T09:56:38.566Z,98193.28
2023-03-28T09:59:17.022Z,98191.16
2023-03-28T10:02:00.332Z,98194.63
2023-03-28T10:04:54.077Z,98200.41
2023-03-28T10:07:42.815Z,98193.22
2023-03-28T10:10:25.375Z,98193.25
2023-03-28T10:13:03.528Z,98203.22
2023-03-28T10:15:41.037Z,98210.78
2023-03-28T10:18:40.772Z,98217.22
2023-03-28T10:21:21.413Z,98207.88
2023-03-28T10:24:04.598Z,98211.72
2023-03-28T10:26:41.415Z,98206.59
2023-03-28T10:29:18.524Z,98220.56
2023-03-28T10:31:54.003Z,98216.25
2023-03-28T10:34:35.543Z,98229.38
2023-03-28T10:37:23.263Z,98216.31
2023-03-28T10:40:01.605Z,98222.78
2023-03-28T10:42:55.651Z,98208.41
2023-03-28T10:45:38.671Z,98214.47
2023-03-28T10:48:27.598Z,98205.78
2023-03-28T10:51:12.593Z,98198.16
2023-03-28T10:54:16.503Z,98209.44
2023-03-28T10:57:04.914Z,98219.28
2023-03-28T10:59:54.653Z,98214.28
2023-03-28T11:02:50.417Z,98196.50
2023-03-28T11:05:32.315Z,98219.31
2023-03-28T11:08:39.980Z,98192.19
2023-03-28T11:11:32.133Z,98209.69
2023-03-28T11:14:03.573Z,98203.47
2023-03-28T11:16:52.062Z,98200.06
2023-03-28T11:20:06.661Z,98200.19
2023-03-28T11:23:04.728Z,98216.50
2023-03-28T11:25:52.234Z,98221.59
2023-03-28T11:28:46.067Z,98214.94
2023-03-28T11:31:26.029Z,98213.06
2023-03-28T11:34:04.976Z,98235.44
2023-03-28T11:37:00.320Z,98227.59
2023-03-28T11:39:39.355Z,98224.34
2023-03-28T11:42:28.997Z,98230.72
2023-03-28T11:45:03.447Z,98230.09
2023-03-28T11:47:34.650Z,98235.50
2023-03-28T11:50:24.109Z,98223.16
2023-03-28T11:53:11.373Z,98234.22
2023-03-28T11:55:44.170Z,98239.50
2023-03-28T11:58:19.470Z,98245.91
2023-03-28T12:01:02.705Z,98275.94
2023-03-28T12:03:49.111Z,98284.16
2023-03-28T12:06:34.313Z,98276.88
2023-03-28T12:09:17.014Z,98279.94
2023-03-28T12:11:58.075Z,98294.66
2023-03-28T12:14:42.536Z,98293.88
2023-03-28T12:17:24.120Z,98300.75
2023-03-28T12:19:56.767Z,98296.09
2023-03-28T12:22:34.477Z,98293.63
2023-03-28T12:25:12.194Z,98304.00
2023-03-28T12:27:55.040Z,98302.56
2023-03-28T12:30:26.507Z,98295.75
2023-03-28T12:33:01.564Z,98309.72
2023-03-28T12:35:35.660Z,98290.56
2023-03-28T12:38:14.422Z,98318.44
2023-03-28T12:40:52.454Z,98338.06
2023-03-28T12:43:24.968Z,98343.41
2023-03-28T12:45:57.565Z,98357.16
2023-03-28T12:48:33.402Z,98357.50
2023-03-28T12:51:06.539Z,98359.63
2023-03-28T12:53:44.674Z,98364.41
2023-03-28T12:56:15.206Z,98374.13
2023-03-28T12:58:46.821Z,98373.69
2023-03-28T13:01:19.557Z,98370.41
2023-03-28T13:03:56.762Z,98370.94
2023-03-28T13:06:30.144Z,98366.72
2023-03-28T13:09:13.059Z,98359.00
2023-03-28T13:11:45.926Z,98365.97
2023-03-28T13:14:33.669Z,98381.78
2023-03-28T13:17:03.708Z,98369.63
2023-03-28T13:19:39.587Z,98376.03
2023-03-28T13:22:26.459Z,98368.22
2023-03-28T13:25:29.021Z,98367.97
2023-03-28T13:27:58.084Z,98353.34
2023-03-28T13:30:28.952Z,98355.91
2023-03-28T13:32:58.858Z,98361.25
2023-03-28T13:35:47.377Z,98368.47
2023-03-28T13:38:33.579Z,98354.72
2023-03-28T13:41:06.675Z,98359.28
2023-03-28T13:43:42.799Z,98359.34
2023-03-28T13:46:16.279Z,98361.50
2023-03-28T13:48:49.670Z,98359.63
2023-03-28T13:51:20.936Z,98357.81
2023-03-28T13:53:49.812Z,98354.88
2023-03-28T13:56:24.465Z,98373.09
2023-03-28T13:58:55.706Z,98365.13
2023-03-28T14:01:26.282Z,98378.22
2023-03-28T14:03:56.008Z,98362.88
2023-03-28T14:06:25.870Z,98383.84
2023-03-28T14:08:56.697Z,98392.59
2023-03-28T14:11:30.459Z,98383.75
2023-03-28T14:14:06.068Z,98398.66
2023-03-28T14:16:36.145Z,98395.00
2023-03-28T14:19:05.187Z,98390.91
2023-03-28T14:21:34.594Z,98394.75
2023-03-28T14:24:04.275Z,98392.72
2023-03-28T14:26:36.792Z,98401.03
2023-03-28T14:29:08.445Z,98389.25
2023-03-28T14:31:40.411Z,98402.41
2023-03-28T14:34:18.266Z,98390.66
2023-03-28T14:37:01.295Z,98401.06
2023-03-28T14:39:31.468Z,98397.34
2023-03-28T14:42:03.927Z,98396.53
2023-03-28T14:44:36.582Z,98399.69
2023-03-28T14:47:05.439Z,98406.75
2023-03-28T14:49:34.330Z,98406.22
2023-03-28T14:52:03.675Z,98406.47
2023-03-28T14:54:34.675Z,98399.16
2023-03-28T14:57:06.189Z,98408.16
2023-03-28T14:59:37.725Z,98412.78
2023-03-28T15:02:07.067Z,98411.16
2023-03-28T15:04:35.999Z,98402.41
2023-03-28T15:07:05.184Z,98397.47
2023-03-28T15:09:34.624Z,98398.31
2023-03-28T15:12:08.065Z,98399.16
2023-03-28T15:14:39.936Z,98415.25
2023-03-28T15:17:09.292Z,98425.47
2023-03-28T15:19:38.851Z,98429.44
2023-03-28T15:22:11.655Z,98422.34
2023-03-28T15:24:40.625Z,98428.91
2023-03-28T15:27:21.366Z,98425.25
2023-03-28T15:29:49.744Z,98420.69
2023-03-28T15:32:20.412Z,98430.81
2023-03-28T15:34:55.273Z,98435.19
2023-03-28T15:37:27.305Z,98433.56
2023-03-28T15:39:55.772Z,98435.69
2023-03-28T15:42:36.621Z,98440.66
2023-03-28T15:45:22.498Z,98430.28
2023-03-28T15:47:54.203Z,98437.00
2023-03-28T15:50:25.885Z,98438.16
2023-03-28T15:52:58.748Z,98451.44
2023-03-28T15:55:27.886Z,98454.88
2023-03-28T15:57:58.378Z,98466.72
2023-03-28T16:00:47.431Z,98463.53
2023-03-28T16:03:34.620Z,98462.03
2023-03-28T16:06:23.046Z,98472.53
2023-03-28T16:09:14.499Z,98469.66
2023-03-28T16:11:42.878Z,98479.06
2023-03-28T16:14:15.600Z,98479.56
2023-03-28T16:16:44.076Z,98486.38
2023-03-28T16:19:17.650Z,98492.31
2023-03-28T16:21:46.192Z,98489.97
2023-03-28T16:24:15.088Z,98501.78
2023-03-28T16:26:43.424Z,98498.75
2023-03-28T16:29:12.546Z,98505.63
2023-03-28T16:31:43.972Z,98510.56
2023-03-28T16:34:12.640Z,98510.72
2023-03-28T16:36:41.154Z,98528.19
2023-03-28T16:39:09.812Z,98518.97
2023-03-28T16:41:38.350Z,98529.78
2023-03-28T16:44:06.979Z,98520.13
2023-03-28T16:46:35.656Z,98522.19
2023-03-28T16:49:05.808Z,98530.94
2023-03-28T16:51:34.111Z,98542.69
2023-03-28T16:54:02.801Z,98546.50
2023-03-28T16:56:31.521Z,98551.44
2023-03-28T16:59:00.391Z,98570.03
2023-03-28T17:01:28.707Z,98572.19
2023-03-28T17:03:57.468Z,98575.34
2023-03-28T17:06:27.783Z,98578.47
2023-03-28T17:08:56.374Z,98578.34
2023-03-28T17:11:24.700Z,98585.22
2023-03-28T17:13:54.665Z,98582.00
2023-03-28T17:16:23.178Z,98587.91
2023-03-28T17:18:51.873Z,98595.84
2023-03-28T17:21:20.753Z,98614.00
2023-03-28T17:23:52.841Z,98609.50
2023-03-28T17:26:21.734Z,98609.69
2023-03-28T17:28:51.809Z,98623.16
2023-03-28T17:31:21.892Z,98623.84
2023-03-28T17:33:50.756Z,98619.69
2023-03-28T17:36:22.052Z,98630.91
2023-03-28T17:38:53.414Z,98635.06
2023-03-28T17:41:23.288Z,98642.41
2023-03-28T17:43:52.481Z,98634.00
2023-03-28T17:46:21.476Z,98645.69
2023-03-28T17:48:50.837Z,98648.56
2023-03-28T17:51:19.292Z,98659.41
2023-03-28T17:53:47.941Z,98652.63
2023-03-28T17:56:17.919Z,98656.00
2023-03-28T17:58:46.724Z,98674.09
2023-03-28T18:01:17.029Z,98669.53
2023-03-28T18:03:46.078Z,98682.50
2023-03-28T18:06:14.592Z,98685.81
2023-03-28T18:08:44.844Z,98691.69
2023-03-28T18:11:15.544Z,98688.69
2023-03-28T18:13:45.758Z,98691.00
2023-03-28T18:16:15.729Z,98693.88
2023-03-28T18:18:44.892Z,98700.41
2023-03-28T18:21:13.121Z,98699.59
2023-03-28T18:23:42.689Z,98707.09
2023-03-28T18:26:12.199Z,98700.94
2023-03-28T18:28:41.173Z,98705.81
2023-03-28T18:31:12.855Z,98708.50
2023-03-28T18:33:43.009Z,98710.56
2023-03-28T18:36:12.412Z,98720.13
2023-03-28T18:38:42.414Z,98711.59
2023-03-28T18:41:12.755Z,98718.59
2023-03-28T18:43:42.530Z,98724.78
2023-03-28T18:46:16.006Z,98723.53
2023-03-28T18:48:45.622Z,98729.28
2023-03-28T18:51:14.118Z,98727.66
2023-03-28T18:53:43.308Z,98731.91
2023-03-28T18:56:13.692Z,98732.19
2023-03-28T18:58:43.951Z,98723.78
2023-03-28T19:01:13.884Z,98736.25
2023-03-28T19:03:43.164Z,98744.88
2023-03-28T19:06:13.548Z,98743.16
2023-03-28T19:08:42.152Z,98743.63
2023-03-28T19:11:13.474Z,98747.59
2023-03-28T19:13:42.740Z,98748.09
2023-03-28T19:16:13.767Z,98744.44
2023-03-28T19:18:42.554Z,98742.16
2023-03-28T19:21:11.900Z,98748.56
2023-03-28T19:23:41.367Z,98747.06
2023-03-28T19:26:11.236Z,98749.56
2023-03-28T19:28:40.007Z,98752.91
2023-03-28T19:31:10.133Z,98757.69
2023-03-28T19:33:41.038Z,98755.66
2023-03-28T19:36:09.799Z,98764.72
2023-03-28T19:38:39.513Z,98765.66
2023-03-28T19:41:16.992Z,98760.72
2023-03-28T19:43:46.132Z,98759.00
2023-03-28T19:46:17.003Z,98764.59
2023-03-28T19:48:46.901Z,98750.53
2023-03-28T19:51:15.624Z,98757.34
2023-03-28T19:53:44.310Z,98760.63
2023-03-28T19:56:14.106Z,98770.78
2023-03-28T19:58:45.357Z,98762.16
2023-03-28T20:01:13.811Z,98767.00
2023-03-28T20:03:42.426Z,98767.94
2023-03-28T20:06:14.698Z,98765.22
2023-03-28T20:08:43.419Z,98762.03
2023-03-28T20:11:12.765Z,98771.16
2023-03-28T20:13:42.091Z,98766.16
2023-03-28T20:16:12.104Z,98763.84
2023-03-28T20:18:41.093Z,98770.06
2023-03-28T20:21:12.240Z,98763.59
2023-03-28T20:23:41.126Z,98769.81
2023-03-28T20:26:14.661Z,98763.56
2023-03-28T20:28:46.414Z,98766.19
2023-03-28T20:31:15.894Z,98768.41
2023-03-28T20:33:45.229Z,98768.63
2023-03-28T20:36:14.815Z,98773.25
2023-03-28T20:38:43.402Z,98774.53
2023-03-28T20:41:12.564Z,98776.31
2023-03-28T20:43:46.675Z,98777.00
2023-03-28T20:46:18.453Z,98777.25
2023-03-28T20:48:48.174Z,98781.63
2023-03-28T20:51:18.866Z,98774.06
2023-03-28T20:53:49.678Z,98777.75
2023-03-28T20:56:19.046Z,98790.72
2023-03-28T20:58:48.003Z,98784.69
2023-03-28T21:01:17.719Z,98783.72
2023-03-28T21:03:51.094Z,98784.69
2023-03-28T21:06:22.520Z,98786.00
2023-03-28T21:08:52.701Z,98791.78
2023-03-28T21:11:23.797Z,98793.19
2023-03-28T21:13:52.370Z,98796.56
2023-03-28T21:16:21.278Z,98797.16
2023-03-28T21:18:50.022Z,98795.06
2023-03-28T21:21:20.983Z,98797.06
2023-03-28T21:23:50.095Z,98797.41
2023-03-28T21:26:19.759Z,98800.00
2023-03-28T21:28:48.876Z,98802.09
2023-03-28T21:31:19.960Z,98807.56
2023-03-28T21:33:49.115Z,98804.44
2023-03-28T21:36:19.146Z,98800.47
2023-03-28T21:38:49.511Z,98800.72
2023-03-28T21:41:17.923Z,98797.66
2023-03-28T21:43:47.700Z,98802.50
2023-03-28T21:46:18.640Z,98801.97
2023-03-28T21:48:48.087Z,98799.84
2023-03-28T21:51:17.914Z,98798.31
2023-03-28T21:53:48.366Z,98801.94
2023-03-28T21:56:16.876Z,98801.97
2023-03-28T21:58:45.459Z,98807.00
2023-03-28T22:01:15.054Z,98800.44
2023-03-28T22:03:45.632Z,98803.06
2023-03-28T22:06:14.089Z,98804.00
2023-03-28T22:08:43.413Z,98802.38
2023-03-28T22:11:14.870Z,98801.72
2023-03-28T22:13:45.001Z,98804.06
2023-03-28T22:16:14.329Z,98805.50
2023-03-28T22:18:50.399Z,98805.78
2023-03-28T22:21:18.741Z,98803.47
2023-03-28T22:23:47.803Z,98804.91
2023-03-28T22:26:18.016Z,98812.78
2023-03-28T22:28:46.696Z,98813.94
2023-03-28T22:31:17.100Z,98816.41
2023-03-28T22:33:45.707Z,98826.19
2023-03-28T22:36:14.001Z,98818.53
2023-03-28T22:38:42.564Z,98823.44
2023-03-28T22:41:11.158Z,98825.81
2023-03-28T22:43:42.897Z,98819.31
2023-03-28T22:46:12.683Z,98824.19
2023-03-28T22:48:42.132Z,98827.75
2023-03-28T22:51:12.063Z,98824.22
2023-03-28T22:53:41.244Z,98827.34
2023-03-28T22:56:12.591Z,98826.59
2023-03-28T22:58:42.714Z,98835.09
2023-03-28T23:01:10.964Z,98836.75
2023-03-28T23:03:39.519Z,98838.22
2023-03-28T23:06:08.415Z,98835.19
2023-03-28T23:08:37.618Z,98841.63
2023-03-28T23:11:06.921Z,98836.09
2023-03-28T23:13:35.465Z,98843.41
2023-03-28T23:16:05.820Z,98832.66
2023-03-28T23:18:34.306Z,98839.75
2023-03-28T23:21:02.749Z,98831.84
2023-03-28T23:23:32.401Z,98830.81
2023-03-28T23:26:00.882Z,98836.16
2023-03-28T23:28:29.417Z,98831.72
2023-03-28T23:30:57.706Z,98830.34
2023-03-28T23:33:27.641Z,98827.03
2023-03-28T23:35:56.357Z,98827.50
2023-03-28T23:38:24.937Z,98828.19
2023-03-28T23:40:53.105Z,98829.25
2023-03-28T23:43:21.702Z,98830.41
2023-03-28T23:45:50.036Z,98824.03
2023-03-28T23:48:18.470Z,98828.78
2023-03-28T23:50:48.151Z,98828.50
2023-03-28T23:53:16.714Z,98825.78
2023-03-28T23:55:45.120Z,98831.31
2023-03-28T23:58:13.698Z,98826.16
